sensor_id;sensor_type;location;lat;lon;timestamp;temperature;humidity
16271;DHT22;8243;49.048;8.396;2022-08-21T00:00:22;17.30;43.70
16271;DHT22;8243;49.048;8.396;2022-08-21T00:02:55;17.30;44.50
16271;DHT22;8243;49.048;8.396;2022-08-21T00:05:22;17.20;44.80
16271;DHT22;8243;49.048;8.396;2022-08-21T00:07:48;17.20;45.20
16271;DHT22;8243;49.048;8.396;2022-08-21T00:10:15;17.10;45.80
16271;DHT22;8243;49.048;8.396;2022-08-21T00:12:41;17.10;46.30
16271;DHT22;8243;49.048;8.396;2022-08-21T00:15:09;17.10;46.60
16271;DHT22;8243;49.048;8.396;2022-08-21T00:17:35;17.00;47.30
16271;DHT22;8243;49.048;8.396;2022-08-21T00:20:04;17.00;49.40
16271;DHT22;8243;49.048;8.396;2022-08-21T00:22:30;17.00;50.10
16271;DHT22;8243;49.048;8.396;2022-08-21T00:24:56;17.00;50.60
16271;DHT22;8243;49.048;8.396;2022-08-21T00:27:21;16.90;50.10
16271;DHT22;8243;49.048;8.396;2022-08-21T00:29:47;16.80;50.00
16271;DHT22;8243;49.048;8.396;2022-08-21T00:32:12;16.70;50.00
16271;DHT22;8243;49.048;8.396;2022-08-21T00:34:44;16.70;52.60
16271;DHT22;8243;49.048;8.396;2022-08-21T00:37:09;16.70;54.40
16271;DHT22;8243;49.048;8.396;2022-08-21T00:39:35;16.80;55.40
16271;DHT22;8243;49.048;8.396;2022-08-21T00:42:00;16.80;55.10
16271;DHT22;8243;49.048;8.396;2022-08-21T00:44:26;16.70;55.30
16271;DHT22;8243;49.048;8.396;2022-08-21T00:46:51;16.70;56.30
16271;DHT22;8243;49.048;8.396;2022-08-21T00:49:17;16.60;56.20
16271;DHT22;8243;49.048;8.396;2022-08-21T00:51:50;16.60;56.50
16271;DHT22;8243;49.048;8.396;2022-08-21T00:54:17;16.60;57.10
16271;DHT22;8243;49.048;8.396;2022-08-21T00:56:43;16.60;57.10
16271;DHT22;8243;49.048;8.396;2022-08-21T00:59:09;16.60;58.00
16271;DHT22;8243;49.048;8.396;2022-08-21T01:01:35;16.50;59.00
16271;DHT22;8243;49.048;8.396;2022-08-21T01:04:01;16.50;59.60
16271;DHT22;8243;49.048;8.396;2022-08-21T01:06:27;16.40;60.10
16271;DHT22;8243;49.048;8.396;2022-08-21T01:08:53;16.40;60.30
16271;DHT22;8243;49.048;8.396;2022-08-21T01:11:18;16.40;60.50
16271;DHT22;8243;49.048;8.396;2022-08-21T01:13:45;16.40;61.00
16271;DHT22;8243;49.048;8.396;2022-08-21T01:16:16;16.40;60.90
16271;DHT22;8243;49.048;8.396;2022-08-21T01:18:43;16.30;61.50
16271;DHT22;8243;49.048;8.396;2022-08-21T01:21:13;16.30;62.00
16271;DHT22;8243;49.048;8.396;2022-08-21T01:23:42;16.30;62.90
16271;DHT22;8243;49.048;8.396;2022-08-21T01:26:09;16.20;64.60
16271;DHT22;8243;49.048;8.396;2022-08-21T01:28:42;16.10;64.80
16271;DHT22;8243;49.048;8.396;2022-08-21T01:31:10;16.10;64.70
16271;DHT22;8243;49.048;8.396;2022-08-21T01:33:37;16.00;65.70
16271;DHT22;8243;49.048;8.396;2022-08-21T01:36:03;16.00;66.40
16271;DHT22;8243;49.048;8.396;2022-08-21T01:38:30;16.00;68.00
16271;DHT22;8243;49.048;8.396;2022-08-21T01:40:56;16.00;68.60
16271;DHT22;8243;49.048;8.396;2022-08-21T01:43:21;15.90;68.90
16271;DHT22;8243;49.048;8.396;2022-08-21T01:45:47;15.90;70.00
16271;DHT22;8243;49.048;8.396;2022-08-21T01:48:12;15.90;71.00
16271;DHT22;8243;49.048;8.396;2022-08-21T01:50:38;15.80;71.20
16271;DHT22;8243;49.048;8.396;2022-08-21T01:53:04;15.70;72.80
16271;DHT22;8243;49.048;8.396;2022-08-21T01:55:29;15.70;74.40
16271;DHT22;8243;49.048;8.396;2022-08-21T01:57:56;15.70;77.50
16271;DHT22;8243;49.048;8.396;2022-08-21T02:00:23;15.70;81.80
16271;DHT22;8243;49.048;8.396;2022-08-21T02:02:48;15.70;84.20
16271;DHT22;8243;49.048;8.396;2022-08-21T02:05:15;15.70;84.10
16271;DHT22;8243;49.048;8.396;2022-08-21T02:07:44;15.60;83.40
16271;DHT22;8243;49.048;8.396;2022-08-21T02:10:12;15.60;83.60
16271;DHT22;8243;49.048;8.396;2022-08-21T02:12:38;15.50;84.90
16271;DHT22;8243;49.048;8.396;2022-08-21T02:15:05;15.40;87.90
16271;DHT22;8243;49.048;8.396;2022-08-21T02:17:45;15.30;90.70
16271;DHT22;8243;49.048;8.396;2022-08-21T02:20:17;15.30;91.20
16271;DHT22;8243;49.048;8.396;2022-08-21T02:22:42;15.20;91.60
16271;DHT22;8243;49.048;8.396;2022-08-21T02:25:08;15.20;92.10
16271;DHT22;8243;49.048;8.396;2022-08-21T02:27:43;15.10;93.70
16271;DHT22;8243;49.048;8.396;2022-08-21T02:30:12;15.10;94.50
16271;DHT22;8243;49.048;8.396;2022-08-21T02:32:39;15.10;94.90
16271;DHT22;8243;49.048;8.396;2022-08-21T02:35:05;15.10;96.70
16271;DHT22;8243;49.048;8.396;2022-08-21T02:37:31;15.00;98.20
16271;DHT22;8243;49.048;8.396;2022-08-21T02:39:59;15.00;99.90
16271;DHT22;8243;49.048;8.396;2022-08-21T02:42:25;15.00;99.90
16271;DHT22;8243;49.048;8.396;2022-08-21T02:44:50;15.10;99.90
16271;DHT22;8243;49.048;8.396;2022-08-21T02:47:16;15.10;99.90
16271;DHT22;8243;49.048;8.396;2022-08-21T02:49:41;15.00;99.90
16271;DHT22;8243;49.048;8.396;2022-08-21T02:52:07;15.00;99.90
16271;DHT22;8243;49.048;8.396;2022-08-21T02:54:32;14.90;99.90
16271;DHT22;8243;49.048;8.396;2022-08-21T02:56:58;15.00;99.90
16271;DHT22;8243;49.048;8.396;2022-08-21T02:59:24;14.90;99.90
16271;DHT22;8243;49.048;8.396;2022-08-21T03:01:49;14.90;99.90
16271;DHT22;8243;49.048;8.396;2022-08-21T03:04:15;14.90;99.90
16271;DHT22;8243;49.048;8.396;2022-08-21T03:06:40;14.90;99.90
16271;DHT22;8243;49.048;8.396;2022-08-21T03:09:06;14.90;99.90
16271;DHT22;8243;49.048;8.396;2022-08-21T03:11:31;14.80;99.90
16271;DHT22;8243;49.048;8.396;2022-08-21T03:13:57;14.80;99.90
16271;DHT22;8243;49.048;8.396;2022-08-21T03:16:22;14.90;99.90
16271;DHT22;8243;49.048;8.396;2022-08-21T03:18:48;14.90;99.90
16271;DHT22;8243;49.048;8.396;2022-08-21T03:21:14;14.90;99.90
16271;DHT22;8243;49.048;8.396;2022-08-21T03:23:39;14.90;99.90
16271;DHT22;8243;49.048;8.396;2022-08-21T03:26:07;14.90;99.90
16271;DHT22;8243;49.048;8.396;2022-08-21T03:28:33;14.90;99.90
16271;DHT22;8243;49.048;8.396;2022-08-21T03:30:58;14.90;99.90
16271;DHT22;8243;49.048;8.396;2022-08-21T03:33:24;14.80;99.90
16271;DHT22;8243;49.048;8.396;2022-08-21T03:36:01;14.90;99.90
16271;DHT22;8243;49.048;8.396;2022-08-21T03:38:28;14.90;99.90
16271;DHT22;8243;49.048;8.396;2022-08-21T03:40:54;14.80;99.90
16271;DHT22;8243;49.048;8.396;2022-08-21T03:43:20;14.70;99.90
16271;DHT22;8243;49.048;8.396;2022-08-21T03:45:46;14.80;99.90
16271;DHT22;8243;49.048;8.396;2022-08-21T03:48:12;14.70;99.90
16271;DHT22;8243;49.048;8.396;2022-08-21T03:50:40;14.60;99.90
16271;DHT22;8243;49.048;8.396;2022-08-21T03:53:11;14.50;99.90
16271;DHT22;8243;49.048;8.396;2022-08-21T03:55:36;14.50;99.90
16271;DHT22;8243;49.048;8.396;2022-08-21T03:58:02;14.40;99.90
16271;DHT22;8243;49.048;8.396;2022-08-21T04:00:28;14.40;99.90
16271;DHT22;8243;49.048;8.396;2022-08-21T04:02:54;14.30;99.90
16271;DHT22;8243;49.048;8.396;2022-08-21T04:05:20;14.30;99.90
16271;DHT22;8243;49.048;8.396;2022-08-21T04:08:02;14.20;99.90
16271;DHT22;8243;49.048;8.396;2022-08-21T04:10:30;14.10;99.90
16271;DHT22;8243;49.048;8.396;2022-08-21T04:12:56;14.00;99.90
16271;DHT22;8243;49.048;8.396;2022-08-21T04:15:23;14.00;99.90
16271;DHT22;8243;49.048;8.396;2022-08-21T04:17:49;13.90;99.90
16271;DHT22;8243;49.048;8.396;2022-08-21T04:20:16;14.00;99.90
16271;DHT22;8243;49.048;8.396;2022-08-21T04:22:42;14.00;99.90
16271;DHT22;8243;49.048;8.396;2022-08-21T04:25:08;14.00;99.90
16271;DHT22;8243;49.048;8.396;2022-08-21T04:27:34;13.90;99.90
16271;DHT22;8243;49.048;8.396;2022-08-21T04:29:59;13.80;99.90
16271;DHT22;8243;49.048;8.396;2022-08-21T04:32:26;13.70;99.90
16271;DHT22;8243;49.048;8.396;2022-08-21T04:35:02;13.70;99.90
16271;DHT22;8243;49.048;8.396;2022-08-21T04:37:29;13.70;99.90
16271;DHT22;8243;49.048;8.396;2022-08-21T04:39:55;13.80;99.90
16271;DHT22;8243;49.048;8.396;2022-08-21T04:42:27;13.80;99.90
16271;DHT22;8243;49.048;8.396;2022-08-21T04:44:53;13.90;99.90
16271;DHT22;8243;49.048;8.396;2022-08-21T04:47:20;13.90;99.90
16271;DHT22;8243;49.048;8.396;2022-08-21T04:49:46;14.00;99.90
16271;DHT22;8243;49.048;8.396;2022-08-21T04:52:13;14.10;99.90
16271;DHT22;8243;49.048;8.396;2022-08-21T04:54:41;14.00;99.90
16271;DHT22;8243;49.048;8.396;2022-08-21T04:57:08;14.20;99.90
16271;DHT22;8243;49.048;8.396;2022-08-21T04:59:40;14.70;99.90
16271;DHT22;8243;49.048;8.396;2022-08-21T05:02:08;15.20;99.90
16271;DHT22;8243;49.048;8.396;2022-08-21T05:04:37;15.90;99.90
16271;DHT22;8243;49.048;8.396;2022-08-21T05:07:05;16.50;99.90
16271;DHT22;8243;49.048;8.396;2022-08-21T05:09:33;17.00;93.90
16271;DHT22;8243;49.048;8.396;2022-08-21T05:12:01;17.50;84.30
16271;DHT22;8243;49.048;8.396;2022-08-21T05:14:27;18.00;73.00
16271;DHT22;8243;49.048;8.396;2022-08-21T05:16:53;18.40;67.80
16271;DHT22;8243;49.048;8.396;2022-08-21T05:19:18;19.00;60.00
16271;DHT22;8243;49.048;8.396;2022-08-21T05:21:45;19.60;53.20
16271;DHT22;8243;49.048;8.396;2022-08-21T05:24:11;20.10;48.60
16271;DHT22;8243;49.048;8.396;2022-08-21T05:26:37;20.60;42.30
16271;DHT22;8243;49.048;8.396;2022-08-21T05:29:04;20.90;39.00
16271;DHT22;8243;49.048;8.396;2022-08-21T05:31:30;21.30;36.80
16271;DHT22;8243;49.048;8.396;2022-08-21T05:33:56;21.70;32.70
16271;DHT22;8243;49.048;8.396;2022-08-21T05:36:22;22.20;29.90
16271;DHT22;8243;49.048;8.396;2022-08-21T05:38:48;22.70;27.80
16271;DHT22;8243;49.048;8.396;2022-08-21T05:41:13;23.00;25.60
16271;DHT22;8243;49.048;8.396;2022-08-21T05:43:39;23.20;24.60
16271;DHT22;8243;49.048;8.396;2022-08-21T05:46:06;23.20;23.90
16271;DHT22;8243;49.048;8.396;2022-08-21T05:48:32;23.60;22.70
16271;DHT22;8243;49.048;8.396;2022-08-21T05:50:58;23.60;21.70
16271;DHT22;8243;49.048;8.396;2022-08-21T05:53:29;23.70;21.20
16271;DHT22;8243;49.048;8.396;2022-08-21T05:55:54;24.40;19.50
16271;DHT22;8243;49.048;8.396;2022-08-21T05:58:21;25.00;18.20
16271;DHT22;8243;49.048;8.396;2022-08-21T06:00:49;25.50;16.90
16271;DHT22;8243;49.048;8.396;2022-08-21T06:03:20;25.80;15.80
16271;DHT22;8243;49.048;8.396;2022-08-21T06:05:46;25.90;15.40
16271;DHT22;8243;49.048;8.396;2022-08-21T06:08:12;25.90;15.00
16271;DHT22;8243;49.048;8.396;2022-08-21T06:10:38;25.90;14.70
16271;DHT22;8243;49.048;8.396;2022-08-21T06:13:03;26.00;14.40
16271;DHT22;8243;49.048;8.396;2022-08-21T06:15:30;26.30;14.10
16271;DHT22;8243;49.048;8.396;2022-08-21T06:17:55;26.20;14.00
16271;DHT22;8243;49.048;8.396;2022-08-21T06:20:21;26.40;14.00
16271;DHT22;8243;49.048;8.396;2022-08-21T06:22:46;26.70;13.30
16271;DHT22;8243;49.048;8.396;2022-08-21T06:25:12;27.20;13.20
16271;DHT22;8243;49.048;8.396;2022-08-21T06:27:37;27.40;12.30
16271;DHT22;8243;49.048;8.396;2022-08-21T06:30:04;27.90;11.00
16271;DHT22;8243;49.048;8.396;2022-08-21T06:32:31;28.00;11.20
16271;DHT22;8243;49.048;8.396;2022-08-21T06:34:56;28.10;10.90
16271;DHT22;8243;49.048;8.396;2022-08-21T06:37:22;28.60;10.00
16271;DHT22;8243;49.048;8.396;2022-08-21T06:39:47;28.70;10.10
16271;DHT22;8243;49.048;8.396;2022-08-21T06:42:17;29.30;9.40
16271;DHT22;8243;49.048;8.396;2022-08-21T06:44:43;29.00;9.60
16271;DHT22;8243;49.048;8.396;2022-08-21T06:47:09;29.40;8.60
16271;DHT22;8243;49.048;8.396;2022-08-21T06:49:35;29.20;8.30
16271;DHT22;8243;49.048;8.396;2022-08-21T06:52:01;29.30;8.50
16271;DHT22;8243;49.048;8.396;2022-08-21T06:54:27;29.70;8.00
16271;DHT22;8243;49.048;8.396;2022-08-21T06:56:52;29.70;7.60
16271;DHT22;8243;49.048;8.396;2022-08-21T06:59:18;29.80;7.40
16271;DHT22;8243;49.048;8.396;2022-08-21T07:01:44;29.60;7.30
16271;DHT22;8243;49.048;8.396;2022-08-21T07:04:10;30.10;6.90
16271;DHT22;8243;49.048;8.396;2022-08-21T07:06:36;30.40;6.60
16271;DHT22;8243;49.048;8.396;2022-08-21T07:09:02;30.60;6.20
16271;DHT22;8243;49.048;8.396;2022-08-21T07:11:28;30.00;6.50
16271;DHT22;8243;49.048;8.396;2022-08-21T07:13:54;30.30;6.30
16271;DHT22;8243;49.048;8.396;2022-08-21T07:16:22;30.30;6.60
16271;DHT22;8243;49.048;8.396;2022-08-21T07:18:48;30.90;5.30
16271;DHT22;8243;49.048;8.396;2022-08-21T07:21:15;30.70;5.40
16271;DHT22;8243;49.048;8.396;2022-08-21T07:23:47;30.70;5.20
16271;DHT22;8243;49.048;8.396;2022-08-21T07:26:15;30.50;5.60
16271;DHT22;8243;49.048;8.396;2022-08-21T07:28:40;30.30;6.10
16271;DHT22;8243;49.048;8.396;2022-08-21T07:31:08;31.00;5.30
16271;DHT22;8243;49.048;8.396;2022-08-21T07:33:34;31.10;5.40
16271;DHT22;8243;49.048;8.396;2022-08-21T07:36:00;30.90;5.40
16271;DHT22;8243;49.048;8.396;2022-08-21T07:38:26;31.10;5.40
16271;DHT22;8243;49.048;8.396;2022-08-21T07:40:55;31.50;4.90
16271;DHT22;8243;49.048;8.396;2022-08-21T07:43:22;31.40;5.30
16271;DHT22;8243;49.048;8.396;2022-08-21T07:45:47;31.80;4.90
16271;DHT22;8243;49.048;8.396;2022-08-21T07:48:15;31.70;5.00
16271;DHT22;8243;49.048;8.396;2022-08-21T07:50:40;31.30;5.50
16271;DHT22;8243;49.048;8.396;2022-08-21T07:53:06;31.10;6.20
16271;DHT22;8243;49.048;8.396;2022-08-21T07:55:32;31.20;6.00
16271;DHT22;8243;49.048;8.396;2022-08-21T07:57:58;31.30;5.80
16271;DHT22;8243;49.048;8.396;2022-08-21T08:00:25;31.30;5.70
16271;DHT22;8243;49.048;8.396;2022-08-21T08:02:52;30.70;5.70
16271;DHT22;8243;49.048;8.396;2022-08-21T08:05:22;31.00;5.60
16271;DHT22;8243;49.048;8.396;2022-08-21T08:07:48;31.80;5.00
16271;DHT22;8243;49.048;8.396;2022-08-21T08:10:14;32.20;3.80
16271;DHT22;8243;49.048;8.396;2022-08-21T08:12:41;31.50;4.70
16271;DHT22;8243;49.048;8.396;2022-08-21T08:15:11;32.20;3.80
16271;DHT22;8243;49.048;8.396;2022-08-21T08:17:37;32.20;4.00
16271;DHT22;8243;49.048;8.396;2022-08-21T08:20:05;32.60;3.10
16271;DHT22;8243;49.048;8.396;2022-08-21T08:22:30;32.40;3.40
16271;DHT22;8243;49.048;8.396;2022-08-21T08:24:56;32.20;2.60
16271;DHT22;8243;49.048;8.396;2022-08-21T08:27:22;31.80;3.30
16271;DHT22;8243;49.048;8.396;2022-08-21T08:29:49;32.20;3.10
16271;DHT22;8243;49.048;8.396;2022-08-21T08:32:15;32.40;3.10
16271;DHT22;8243;49.048;8.396;2022-08-21T08:34:40;32.60;1.50
16271;DHT22;8243;49.048;8.396;2022-08-21T08:37:07;31.50;2.60
16271;DHT22;8243;49.048;8.396;2022-08-21T08:39:34;31.90;3.10
16271;DHT22;8243;49.048;8.396;2022-08-21T08:42:06;32.00;3.20
16271;DHT22;8243;49.048;8.396;2022-08-21T08:44:32;32.40;2.10
16271;DHT22;8243;49.048;8.396;2022-08-21T08:46:59;32.70;1.50
16271;DHT22;8243;49.048;8.396;2022-08-21T08:49:49;32.60;2.00
16271;DHT22;8243;49.048;8.396;2022-08-21T08:52:27;33.20;1.20
16271;DHT22;8243;49.048;8.396;2022-08-21T08:57:36;33.10;1.30
16271;DHT22;8243;49.048;8.396;2022-08-21T09:00:09;33.20;1.50
16271;DHT22;8243;49.048;8.396;2022-08-21T09:02:40;33.70;1.00
16271;DHT22;8243;49.048;8.396;2022-08-21T09:05:07;34.00;1.00
16271;DHT22;8243;49.048;8.396;2022-08-21T09:07:54;33.60;1.00
16271;DHT22;8243;49.048;8.396;2022-08-21T09:10:42;33.70;1.00
16271;DHT22;8243;49.048;8.396;2022-08-21T09:16:04;31.80;1.80
16271;DHT22;8243;49.048;8.396;2022-08-21T09:21:11;32.80;1.00
16271;DHT22;8243;49.048;8.396;2022-08-21T09:23:50;32.80;1.00
16271;DHT22;8243;49.048;8.396;2022-08-21T09:26:19;32.00;1.00
16271;DHT22;8243;49.048;8.396;2022-08-21T09:28:48;31.90;1.00
16271;DHT22;8243;49.048;8.396;2022-08-21T09:33:48;30.40;2.70
16271;DHT22;8243;49.048;8.396;2022-08-21T09:36:25;31.00;2.70
16271;DHT22;8243;49.048;8.396;2022-08-21T09:38:53;31.20;1.80
16271;DHT22;8243;49.048;8.396;2022-08-21T09:41:29;31.80;1.00
16271;DHT22;8243;49.048;8.396;2022-08-21T09:43:57;31.40;2.00
16271;DHT22;8243;49.048;8.396;2022-08-21T09:46:25;32.90;1.00
16271;DHT22;8243;49.048;8.396;2022-08-21T09:48:53;33.50;1.00
16271;DHT22;8243;49.048;8.396;2022-08-21T09:51:31;33.20;1.00
16271;DHT22;8243;49.048;8.396;2022-08-21T09:54:12;33.50;1.00
16271;DHT22;8243;49.048;8.396;2022-08-21T09:57:01;33.30;1.00
16271;DHT22;8243;49.048;8.396;2022-08-21T09:59:49;34.00;1.00
16271;DHT22;8243;49.048;8.396;2022-08-21T10:02:33;34.30;1.00
16271;DHT22;8243;49.048;8.396;2022-08-21T10:05:07;33.70;1.00
16271;DHT22;8243;49.048;8.396;2022-08-21T10:07:36;33.70;1.00
16271;DHT22;8243;49.048;8.396;2022-08-21T10:12:57;33.70;1.00
16271;DHT22;8243;49.048;8.396;2022-08-21T10:21:17;33.50;1.00
16271;DHT22;8243;49.048;8.396;2022-08-21T10:26:24;34.10;1.00
16271;DHT22;8243;49.048;8.396;2022-08-21T10:29:11;34.00;1.00
16271;DHT22;8243;49.048;8.396;2022-08-21T10:31:42;32.60;1.00
16271;DHT22;8243;49.048;8.396;2022-08-21T10:34:37;33.00;1.00
16271;DHT22;8243;49.048;8.396;2022-08-21T10:37:22;32.90;1.00
16271;DHT22;8243;49.048;8.396;2022-08-21T10:42:46;32.10;1.00
16271;DHT22;8243;49.048;8.396;2022-08-21T10:48:29;32.50;1.00
16271;DHT22;8243;49.048;8.396;2022-08-21T10:51:13;32.00;1.00
16271;DHT22;8243;49.048;8.396;2022-08-21T10:54:05;32.30;1.00
16271;DHT22;8243;49.048;8.396;2022-08-21T10:56:36;32.00;1.00
16271;DHT22;8243;49.048;8.396;2022-08-21T11:02:16;30.40;1.00
16271;DHT22;8243;49.048;8.396;2022-08-21T11:07:35;29.40;2.50
16271;DHT22;8243;49.048;8.396;2022-08-21T11:10:10;29.60;1.90
16271;DHT22;8243;49.048;8.396;2022-08-21T11:12:44;29.80;2.70
16271;DHT22;8243;49.048;8.396;2022-08-21T11:15:26;29.50;2.00
16271;DHT22;8243;49.048;8.396;2022-08-21T11:20:49;29.40;3.90
16271;DHT22;8243;49.048;8.396;2022-08-21T11:23:26;29.30;3.20
16271;DHT22;8243;49.048;8.396;2022-08-21T11:25:58;29.40;3.40
16271;DHT22;8243;49.048;8.396;2022-08-21T11:28:30;29.90;2.60
16271;DHT22;8243;49.048;8.396;2022-08-21T11:36:58;28.90;2.80
16271;DHT22;8243;49.048;8.396;2022-08-21T11:42:30;28.30;2.50
16271;DHT22;8243;49.048;8.396;2022-08-21T11:50:18;29.20;2.30
16271;DHT22;8243;49.048;8.396;2022-08-21T11:52:49;29.50;1.70
16271;DHT22;8243;49.048;8.396;2022-08-21T11:55:23;29.40;1.00
16271;DHT22;8243;49.048;8.396;2022-08-21T12:00:45;30.20;1.00
16271;DHT22;8243;49.048;8.396;2022-08-21T12:03:16;30.30;1.00
16271;DHT22;8243;49.048;8.396;2022-08-21T12:06:02;30.30;1.00
16271;DHT22;8243;49.048;8.396;2022-08-21T12:08:40;30.30;1.00
16271;DHT22;8243;49.048;8.396;2022-08-21T12:16:40;30.60;1.00
16271;DHT22;8243;49.048;8.396;2022-08-21T12:19:08;30.60;1.00
16271;DHT22;8243;49.048;8.396;2022-08-21T12:21:47;30.20;1.00
16271;DHT22;8243;49.048;8.396;2022-08-21T12:26:59;30.40;1.00
16271;DHT22;8243;49.048;8.396;2022-08-21T12:29:30;30.30;1.00
16271;DHT22;8243;49.048;8.396;2022-08-21T12:32:00;30.40;1.00
16271;DHT22;8243;49.048;8.396;2022-08-21T12:34:34;30.60;1.00
16271;DHT22;8243;49.048;8.396;2022-08-21T12:37:07;30.50;1.00
16271;DHT22;8243;49.048;8.396;2022-08-21T12:39:38;30.50;1.00
16271;DHT22;8243;49.048;8.396;2022-08-21T12:44:55;30.20;1.00
16271;DHT22;8243;49.048;8.396;2022-08-21T12:47:27;30.00;1.00
16271;DHT22;8243;49.048;8.396;2022-08-21T12:50:06;30.20;1.40
16271;DHT22;8243;49.048;8.396;2022-08-21T12:52:36;29.80;1.00
16271;DHT22;8243;49.048;8.396;2022-08-21T12:55:06;29.60;1.00
16271;DHT22;8243;49.048;8.396;2022-08-21T12:57:35;29.20;1.00
16271;DHT22;8243;49.048;8.396;2022-08-21T13:00:06;28.80;1.40
16271;DHT22;8243;49.048;8.396;2022-08-21T13:02:46;29.10;1.60
16271;DHT22;8243;49.048;8.396;2022-08-21T13:05:16;29.70;1.00
16271;DHT22;8243;49.048;8.396;2022-08-21T13:07:47;30.20;1.00
16271;DHT22;8243;49.048;8.396;2022-08-21T13:10:34;30.30;1.00
16271;DHT22;8243;49.048;8.396;2022-08-21T13:13:03;30.50;1.00
16271;DHT22;8243;49.048;8.396;2022-08-21T13:15:33;29.60;1.00
16271;DHT22;8243;49.048;8.396;2022-08-21T13:18:00;29.10;1.10
16271;DHT22;8243;49.048;8.396;2022-08-21T13:20:36;28.70;1.40
16271;DHT22;8243;49.048;8.396;2022-08-21T13:23:07;28.50;1.80
16271;DHT22;8243;49.048;8.396;2022-08-21T13:25:41;28.50;2.00
16271;DHT22;8243;49.048;8.396;2022-08-21T13:28:11;28.80;2.30
16271;DHT22;8243;49.048;8.396;2022-08-21T13:30:54;29.00;1.70
16271;DHT22;8243;49.048;8.396;2022-08-21T13:33:23;29.10;1.60
16271;DHT22;8243;49.048;8.396;2022-08-21T13:38:29;29.00;1.80
16271;DHT22;8243;49.048;8.396;2022-08-21T13:40:58;29.30;1.20
16271;DHT22;8243;49.048;8.396;2022-08-21T13:43:30;29.30;1.60
16271;DHT22;8243;49.048;8.396;2022-08-21T13:45:56;29.40;1.60
16271;DHT22;8243;49.048;8.396;2022-08-21T13:48:25;29.70;1.10
16271;DHT22;8243;49.048;8.396;2022-08-21T13:50:52;29.90;1.00
16271;DHT22;8243;49.048;8.396;2022-08-21T13:53:33;30.10;1.00
16271;DHT22;8243;49.048;8.396;2022-08-21T13:56:00;30.00;1.00
16271;DHT22;8243;49.048;8.396;2022-08-21T13:58:44;30.00;1.00
16271;DHT22;8243;49.048;8.396;2022-08-21T14:03:58;30.40;1.00
16271;DHT22;8243;49.048;8.396;2022-08-21T14:06:32;30.20;1.00
16271;DHT22;8243;49.048;8.396;2022-08-21T14:09:00;30.30;1.00
16271;DHT22;8243;49.048;8.396;2022-08-21T14:11:31;29.90;1.00
16271;DHT22;8243;49.048;8.396;2022-08-21T14:14:04;29.50;1.00
16271;DHT22;8243;49.048;8.396;2022-08-21T14:16:56;29.40;1.00
16271;DHT22;8243;49.048;8.396;2022-08-21T14:19:25;29.20;1.00
16271;DHT22;8243;49.048;8.396;2022-08-21T14:21:51;29.10;1.20
16271;DHT22;8243;49.048;8.396;2022-08-21T14:26:58;29.20;1.00
16271;DHT22;8243;49.048;8.396;2022-08-21T14:29:27;29.20;1.10
16271;DHT22;8243;49.048;8.396;2022-08-21T14:31:59;29.40;1.00
16271;DHT22;8243;49.048;8.396;2022-08-21T14:34:26;29.10;1.00
16271;DHT22;8243;49.048;8.396;2022-08-21T14:36:53;29.00;1.00
16271;DHT22;8243;49.048;8.396;2022-08-21T14:39:20;28.70;1.00
16271;DHT22;8243;49.048;8.396;2022-08-21T14:41:46;28.80;1.10
16271;DHT22;8243;49.048;8.396;2022-08-21T14:44:14;29.00;1.20
16271;DHT22;8243;49.048;8.396;2022-08-21T14:46:40;29.20;1.00
16271;DHT22;8243;49.048;8.396;2022-08-21T14:49:05;29.20;1.00
16271;DHT22;8243;49.048;8.396;2022-08-21T14:51:31;28.90;1.00
16271;DHT22;8243;49.048;8.396;2022-08-21T14:53:56;28.90;1.00
16271;DHT22;8243;49.048;8.396;2022-08-21T14:56:22;29.00;1.00
16271;DHT22;8243;49.048;8.396;2022-08-21T14:58:50;29.00;1.00
16271;DHT22;8243;49.048;8.396;2022-08-21T15:01:18;28.80;1.00
16271;DHT22;8243;49.048;8.396;2022-08-21T15:03:45;28.70;1.00
16271;DHT22;8243;49.048;8.396;2022-08-21T15:06:12;28.80;1.00
16271;DHT22;8243;49.048;8.396;2022-08-21T15:08:38;28.90;1.00
16271;DHT22;8243;49.048;8.396;2022-08-21T15:11:05;29.10;1.00
16271;DHT22;8243;49.048;8.396;2022-08-21T15:13:31;29.20;1.00
16271;DHT22;8243;49.048;8.396;2022-08-21T15:15:57;29.00;1.00
16271;DHT22;8243;49.048;8.396;2022-08-21T15:18:25;29.00;1.00
16271;DHT22;8243;49.048;8.396;2022-08-21T15:20:52;29.00;1.00
16271;DHT22;8243;49.048;8.396;2022-08-21T15:23:17;29.10;1.00
16271;DHT22;8243;49.048;8.396;2022-08-21T15:25:45;29.00;1.00
16271;DHT22;8243;49.048;8.396;2022-08-21T15:28:12;29.00;1.00
16271;DHT22;8243;49.048;8.396;2022-08-21T15:30:39;28.80;1.00
16271;DHT22;8243;49.048;8.396;2022-08-21T15:33:05;28.90;1.00
16271;DHT22;8243;49.048;8.396;2022-08-21T15:35:32;28.90;1.00
16271;DHT22;8243;49.048;8.396;2022-08-21T15:37:57;28.90;1.00
16271;DHT22;8243;49.048;8.396;2022-08-21T15:40:24;29.00;1.00
16271;DHT22;8243;49.048;8.396;2022-08-21T15:42:52;29.20;1.00
16271;DHT22;8243;49.048;8.396;2022-08-21T15:45:21;29.30;1.00
16271;DHT22;8243;49.048;8.396;2022-08-21T15:47:49;29.60;1.00
16271;DHT22;8243;49.048;8.396;2022-08-21T15:50:14;29.60;1.00
16271;DHT22;8243;49.048;8.396;2022-08-21T15:52:40;29.40;1.00
16271;DHT22;8243;49.048;8.396;2022-08-21T15:55:07;29.30;1.00
16271;DHT22;8243;49.048;8.396;2022-08-21T15:57:34;29.00;1.00
16271;DHT22;8243;49.048;8.396;2022-08-21T16:00:06;29.00;1.00
16271;DHT22;8243;49.048;8.396;2022-08-21T16:02:37;28.90;1.00
16271;DHT22;8243;49.048;8.396;2022-08-21T16:05:04;28.90;1.00
16271;DHT22;8243;49.048;8.396;2022-08-21T16:07:29;28.60;1.00
16271;DHT22;8243;49.048;8.396;2022-08-21T16:09:55;28.70;1.00
16271;DHT22;8243;49.048;8.396;2022-08-21T16:12:24;28.90;1.00
16271;DHT22;8243;49.048;8.396;2022-08-21T16:14:51;29.00;1.00
16271;DHT22;8243;49.048;8.396;2022-08-21T16:17:17;28.90;1.00
16271;DHT22;8243;49.048;8.396;2022-08-21T16:19:43;29.00;1.00
16271;DHT22;8243;49.048;8.396;2022-08-21T16:22:09;28.90;1.00
16271;DHT22;8243;49.048;8.396;2022-08-21T16:24:35;28.80;1.00
16271;DHT22;8243;49.048;8.396;2022-08-21T16:27:01;28.90;1.00
16271;DHT22;8243;49.048;8.396;2022-08-21T16:29:32;28.80;1.00
16271;DHT22;8243;49.048;8.396;2022-08-21T16:31:58;28.90;1.00
16271;DHT22;8243;49.048;8.396;2022-08-21T16:34:24;29.00;1.00
16271;DHT22;8243;49.048;8.396;2022-08-21T16:36:49;29.00;1.00
16271;DHT22;8243;49.048;8.396;2022-08-21T16:39:15;28.90;1.00
16271;DHT22;8243;49.048;8.396;2022-08-21T16:41:41;28.70;1.00
16271;DHT22;8243;49.048;8.396;2022-08-21T16:44:06;28.60;1.00
16271;DHT22;8243;49.048;8.396;2022-08-21T16:46:36;28.50;1.00
16271;DHT22;8243;49.048;8.396;2022-08-21T16:49:03;28.50;1.00
16271;DHT22;8243;49.048;8.396;2022-08-21T16:51:28;28.60;1.00
16271;DHT22;8243;49.048;8.396;2022-08-21T16:53:56;28.50;1.00
16271;DHT22;8243;49.048;8.396;2022-08-21T16:56:22;28.50;1.00
16271;DHT22;8243;49.048;8.396;2022-08-21T16:58:49;28.50;1.00
16271;DHT22;8243;49.048;8.396;2022-08-21T17:01:18;28.50;1.00
16271;DHT22;8243;49.048;8.396;2022-08-21T17:03:46;28.30;1.00
16271;DHT22;8243;49.048;8.396;2022-08-21T17:06:13;28.20;1.00
16271;DHT22;8243;49.048;8.396;2022-08-21T17:08:39;28.20;1.00
16271;DHT22;8243;49.048;8.396;2022-08-21T17:11:07;28.20;1.00
16271;DHT22;8243;49.048;8.396;2022-08-21T17:13:33;28.10;1.00
16271;DHT22;8243;49.048;8.396;2022-08-21T17:15:59;28.00;1.00